<?xml version='1.0' encoding='UTF-8'?><gpx version="1.1" creator="JPX - https://github.com/jenetics/jpx" xmlns="http://www.topografix.com/GPX/1/1"><trk><trkseg><trkpt lat="43.8111308" lon="11.0496304"><ele>45.0</ele><time>2026-04-25T06:06:28.787Z</time></trkpt><trkpt lat="43.8111987" lon="11.0496778"><ele>45.0</ele><time>2026-04-25T06:06:34.765Z</time></trkpt><trkpt lat="43.8112428" lon="11.0497448"><ele>45.0</ele><time>2026-04-25T06:06:36.958Z</time></trkpt><trkpt lat="43.8112986" lon="11.0498176"><ele>45.0</ele><time>2026-04-25T06:06:39.987Z</time></trkpt><trkpt lat="43.8113534" lon="11.0497734"><ele>45.0</ele><time>2026-04-25T06:06:46.223Z</time></trkpt><trkpt lat="43.8114311" lon="11.0497318"><ele>45.0</ele><time>2026-04-25T06:06:50.198Z</time></trkpt><trkpt lat="43.8114967" lon="11.0497052"><ele>45.0</ele><time>2026-04-25T06:06:53.185Z</time></trkpt><trkpt lat="43.8115666" lon="11.0497068"><ele>45.0</ele><time>2026-04-25T06:06:56.25Z</time></trkpt><trkpt lat="43.8116263" lon="11.0497529"><ele>45.0</ele><time>2026-04-25T06:06:59.425Z</time></trkpt><trkpt lat="43.8116814" lon="11.0498329"><ele>45.0</ele><time>2026-04-25T06:07:02.343Z</time></trkpt><trkpt lat="43.8117224" lon="11.0499087"><ele>45.0</ele><time>2026-04-25T06:07:05.28Z</time></trkpt><trkpt lat="43.8117685" lon="11.0500031"><ele>45.0</ele><time>2026-04-25T06:07:09.249Z</time></trkpt><trkpt lat="43.8118029" lon="11.050078"><ele>45.0</ele><time>2026-04-25T06:07:12.141Z</time></trkpt><trkpt lat="43.8118429" lon="11.0501505"><ele>45.0</ele><time>2026-04-25T06:07:15.096Z</time></trkpt><trkpt lat="43.8118833" lon="11.0502264"><ele>44.57142857142857</ele><time>2026-04-25T06:07:18.012Z</time></trkpt><trkpt lat="43.8119585" lon="11.0502338"><ele>44.142857142857146</ele><time>2026-04-25T06:07:21.903Z</time></trkpt><trkpt lat="43.8120287" lon="11.0502041"><ele>43.714285714285715</ele><time>2026-04-25T06:07:24.843Z</time></trkpt><trkpt lat="43.812093" lon="11.0501522"><ele>43.285714285714285</ele><time>2026-04-25T06:07:27.782Z</time></trkpt><trkpt lat="43.8121465" lon="11.0500863"><ele>42.85714285714286</ele><time>2026-04-25T06:07:30.685Z</time></trkpt><trkpt lat="43.8121975" lon="11.0500122"><ele>42.42857142857143</ele><time>2026-04-25T06:07:34.602Z</time></trkpt><trkpt lat="43.8122505" lon="11.0499336"><ele>42.0</ele><time>2026-04-25T06:07:38.865Z</time></trkpt><trkpt lat="43.8123103" lon="11.04987"><ele>41.666666666666664</ele><time>2026-04-25T06:07:42.824Z</time></trkpt><trkpt lat="43.8123757" lon="11.0498092"><ele>41.333333333333336</ele><time>2026-04-25T06:07:46.947Z</time></trkpt><trkpt lat="43.8124375" lon="11.0497247"><ele>41.0</ele><time>2026-04-25T06:07:50.938Z</time></trkpt><trkpt lat="43.8124629" lon="11.0496437"><ele>40.66666666666667</ele><time>2026-04-25T06:07:54.824Z</time></trkpt><trkpt lat="43.8124788" lon="11.0495374"><ele>40.333333333333336</ele><time>2026-04-25T06:07:58.743Z</time></trkpt><trkpt lat="43.8124952" lon="11.0494427"><ele>40.0</ele><time>2026-04-25T06:08:01.975Z</time></trkpt><trkpt lat="43.8125021" lon="11.0493431"><ele>40.0</ele><time>2026-04-25T06:08:06.024Z</time></trkpt><trkpt lat="43.8124966" lon="11.0492336"><ele>40.0</ele><time>2026-04-25T06:08:09.924Z</time></trkpt><trkpt lat="43.8125006" lon="11.0491196"><ele>40.0</ele><time>2026-04-25T06:08:13.802Z</time></trkpt><trkpt lat="43.8124794" lon="11.0490234"><ele>40.0</ele><time>2026-04-25T06:08:16.74Z</time></trkpt><trkpt lat="43.8124839" lon="11.0489314"><ele>40.0</ele><time>2026-04-25T06:08:22.945Z</time></trkpt><trkpt lat="43.8124595" lon="11.0488468"><ele>40.0</ele><time>2026-04-25T06:08:30.484Z</time></trkpt><trkpt lat="43.8124326" lon="11.0487609"><ele>40.0</ele><time>2026-04-25T06:08:36.963Z</time></trkpt><trkpt lat="43.8124063" lon="11.0486581"><ele>40.333333333333336</ele><time>2026-04-25T06:08:41.944Z</time></trkpt><trkpt lat="43.8123842" lon="11.0485737"><ele>40.66666666666667</ele><time>2026-04-25T06:08:46.94Z</time></trkpt><trkpt lat="43.8123752" lon="11.0484685"><ele>41.0</ele><time>2026-04-25T06:08:51.987Z</time></trkpt><trkpt lat="43.8123766" lon="11.0483646"><ele>41.333333333333336</ele><time>2026-04-25T06:08:54.907Z</time></trkpt><trkpt lat="43.8123934" lon="11.048269"><ele>41.666666666666664</ele><time>2026-04-25T06:08:57.782Z</time></trkpt><trkpt lat="43.8123411" lon="11.0481677"><ele>42.0</ele><time>2026-04-25T06:09:00.958Z</time></trkpt><trkpt lat="43.8123163" lon="11.0480721"><ele>42.142857142857146</ele><time>2026-04-25T06:09:03.884Z</time></trkpt><trkpt lat="43.8122906" lon="11.0479831"><ele>42.285714285714285</ele><time>2026-04-25T06:09:08.92Z</time></trkpt><trkpt lat="43.8122656" lon="11.0479024"><ele>42.42857142857143</ele><time>2026-04-25T06:09:13.864Z</time></trkpt><trkpt lat="43.8122465" lon="11.0478069"><ele>42.57142857142857</ele><time>2026-04-25T06:09:18.725Z</time></trkpt><trkpt lat="43.8122203" lon="11.0477008"><ele>42.714285714285715</ele><time>2026-04-25T06:09:22.863Z</time></trkpt><trkpt lat="43.8121893" lon="11.0475843"><ele>42.85714285714286</ele><time>2026-04-25T06:09:26.961Z</time></trkpt><trkpt lat="43.8121459" lon="11.0475134"><ele>43.0</ele><time>2026-04-25T06:09:28.859Z</time></trkpt><trkpt lat="43.812072" lon="11.0474821"><ele>43.00000000000001</ele><time>2026-04-25T06:09:31.9Z</time></trkpt><trkpt lat="43.8120004" lon="11.0474831"><ele>43.0</ele><time>2026-04-25T06:09:34.946Z</time></trkpt><trkpt lat="43.8119429" lon="11.0475261"><ele>43.0</ele><time>2026-04-25T06:09:37.802Z</time></trkpt><trkpt lat="43.8119056" lon="11.0476368"><ele>43.0</ele><time>2026-04-25T06:09:41.879Z</time></trkpt><trkpt lat="43.8119057" lon="11.0477428"><ele>43.0</ele><time>2026-04-25T06:09:45.725Z</time></trkpt><trkpt lat="43.8119278" lon="11.0478253"><ele>43.00000000000001</ele><time>2026-04-25T06:09:48.904Z</time></trkpt><trkpt lat="43.811959" lon="11.0479016"><ele>43.0</ele><time>2026-04-25T06:09:52.74Z</time></trkpt><trkpt lat="43.811975" lon="11.0480125"><ele>43.00000000000001</ele><time>2026-04-25T06:09:56.902Z</time></trkpt><trkpt lat="43.811984" lon="11.0481061"><ele>43.0</ele><time>2026-04-25T06:10:02.88Z</time></trkpt><trkpt lat="43.8119965" lon="11.0481936"><ele>43.0</ele><time>2026-04-25T06:10:07.964Z</time></trkpt><trkpt lat="43.8120174" lon="11.0482915"><ele>43.0</ele><time>2026-04-25T06:10:11.842Z</time></trkpt><trkpt lat="43.8120413" lon="11.0483943"><ele>43.0</ele><time>2026-04-25T06:10:15.965Z</time></trkpt><trkpt lat="43.8120612" lon="11.0484882"><ele>43.00000000000001</ele><time>2026-04-25T06:10:21.908Z</time></trkpt><trkpt lat="43.8120778" lon="11.0485914"><ele>43.0</ele><time>2026-04-25T06:10:25.943Z</time></trkpt><trkpt lat="43.8121007" lon="11.0487087"><ele>42.85714285714286</ele><time>2026-04-25T06:10:29.976Z</time></trkpt><trkpt lat="43.8121192" lon="11.0488068"><ele>42.714285714285715</ele><time>2026-04-25T06:10:32.891Z</time></trkpt><trkpt lat="43.8121477" lon="11.0488952"><ele>42.57142857142857</ele><time>2026-04-25T06:10:36.924Z</time></trkpt><trkpt lat="43.8121741" lon="11.0489794"><ele>42.42857142857143</ele><time>2026-04-25T06:10:40.917Z</time></trkpt><trkpt lat="43.8122045" lon="11.0490804"><ele>42.285714285714285</ele><time>2026-04-25T06:10:45.102Z</time></trkpt><trkpt lat="43.8122291" lon="11.0491796"><ele>42.142857142857146</ele><time>2026-04-25T06:10:48.981Z</time></trkpt><trkpt lat="43.8122707" lon="11.049254"><ele>42.0</ele><time>2026-04-25T06:10:52.945Z</time></trkpt><trkpt lat="43.8123407" lon="11.0492699"><ele>41.666666666666664</ele><time>2026-04-25T06:10:57.006Z</time></trkpt><trkpt lat="43.8124214" lon="11.0492682"><ele>41.333333333333336</ele><time>2026-04-25T06:11:00.862Z</time></trkpt><trkpt lat="43.8124819" lon="11.0493633"><ele>41.0</ele><time>2026-04-25T06:11:03.805Z</time></trkpt><trkpt lat="43.8125031" lon="11.0494778"><ele>40.66666666666667</ele><time>2026-04-25T06:11:06.645Z</time></trkpt><trkpt lat="43.8124758" lon="11.0495871"><ele>40.333333333333336</ele><time>2026-04-25T06:11:09.499Z</time></trkpt><trkpt lat="43.8124476" lon="11.0496665"><ele>40.0</ele><time>2026-04-25T06:11:12.004Z</time></trkpt><trkpt lat="43.8124192" lon="11.0497469"><ele>40.0</ele><time>2026-04-25T06:11:14.743Z</time></trkpt><trkpt lat="43.8123726" lon="11.0498396"><ele>40.0</ele><time>2026-04-25T06:11:18.843Z</time></trkpt><trkpt lat="43.8123181" lon="11.0499242"><ele>40.0</ele><time>2026-04-25T06:11:23.073Z</time></trkpt><trkpt lat="43.8122968" lon="11.0500194"><ele>40.0</ele><time>2026-04-25T06:11:26.108Z</time></trkpt><trkpt lat="43.8122395" lon="11.0500745"><ele>40.0</ele><time>2026-04-25T06:11:28.972Z</time></trkpt><trkpt lat="43.8121545" lon="11.0501108"><ele>40.0</ele><time>2026-04-25T06:11:32.189Z</time></trkpt><trkpt lat="43.8120828" lon="11.05014"><ele>40.285714285714285</ele><time>2026-04-25T06:11:35.315Z</time></trkpt><trkpt lat="43.8120244" lon="11.0501825"><ele>40.57142857142857</ele><time>2026-04-25T06:11:39.413Z</time></trkpt><trkpt lat="43.8119525" lon="11.0502115"><ele>40.85714285714286</ele><time>2026-04-25T06:11:44.493Z</time></trkpt><trkpt lat="43.8118733" lon="11.0502456"><ele>41.14285714285714</ele><time>2026-04-25T06:11:48.354Z</time></trkpt><trkpt lat="43.811846" lon="11.0503435"><ele>41.42857142857143</ele><time>2026-04-25T06:11:52.469Z</time></trkpt><trkpt lat="43.8118958" lon="11.0504101"><ele>41.714285714285715</ele><time>2026-04-25T06:11:54.635Z</time></trkpt><trkpt lat="43.8119593" lon="11.0504554"><ele>42.0</ele><time>2026-04-25T06:11:57.095Z</time></trkpt><trkpt lat="43.8120225" lon="11.0505267"><ele>42.0</ele><time>2026-04-25T06:12:00.923Z</time></trkpt><trkpt lat="43.8120881" lon="11.050597"><ele>42.0</ele><time>2026-04-25T06:12:04.641Z</time></trkpt><trkpt lat="43.8121438" lon="11.0506574"><ele>42.0</ele><time>2026-04-25T06:12:07.987Z</time></trkpt><trkpt lat="43.812205" lon="11.0507322"><ele>42.0</ele><time>2026-04-25T06:12:11.883Z</time></trkpt><trkpt lat="43.812243" lon="11.050842"><ele>42.0</ele><time>2026-04-25T06:12:16.01Z</time></trkpt><trkpt lat="43.8122798" lon="11.0509175"><ele>42.0</ele><time>2026-04-25T06:12:18.883Z</time></trkpt><trkpt lat="43.8123259" lon="11.0510003"><ele>42.142857142857146</ele><time>2026-04-25T06:12:22.625Z</time></trkpt><trkpt lat="43.8123766" lon="11.0510689"><ele>42.285714285714285</ele><time>2026-04-25T06:12:26.684Z</time></trkpt><trkpt lat="43.8124141" lon="11.0511442"><ele>42.42857142857143</ele><time>2026-04-25T06:12:30.505Z</time></trkpt><trkpt lat="43.8124606" lon="11.0512225"><ele>42.57142857142857</ele><time>2026-04-25T06:12:33.946Z</time></trkpt><trkpt lat="43.8125091" lon="11.0513057"><ele>42.714285714285715</ele><time>2026-04-25T06:12:36.968Z</time></trkpt><trkpt lat="43.8125619" lon="11.0513747"><ele>42.85714285714286</ele><time>2026-04-25T06:12:39.982Z</time></trkpt><trkpt lat="43.8126012" lon="11.0514706"><ele>43.0</ele><time>2026-04-25T06:12:44.113Z</time></trkpt><trkpt lat="43.8126473" lon="11.0515356"><ele>42.85714285714286</ele><time>2026-04-25T06:12:47.226Z</time></trkpt><trkpt lat="43.8127028" lon="11.0515825"><ele>42.714285714285715</ele><time>2026-04-25T06:12:50.096Z</time></trkpt><trkpt lat="43.8127427" lon="11.0516585"><ele>42.57142857142857</ele><time>2026-04-25T06:12:54.469Z</time></trkpt><trkpt lat="43.8127725" lon="11.0517414"><ele>42.42857142857143</ele><time>2026-04-25T06:12:59.824Z</time></trkpt><trkpt lat="43.8128126" lon="11.0518165"><ele>42.285714285714285</ele><time>2026-04-25T06:13:02.904Z</time></trkpt><trkpt lat="43.8128494" lon="11.0518908"><ele>42.142857142857146</ele><time>2026-04-25T06:13:05.683Z</time></trkpt><trkpt lat="43.8128884" lon="11.051969"><ele>42.0</ele><time>2026-04-25T06:13:08.542Z</time></trkpt><trkpt lat="43.8129186" lon="11.0520636"><ele>42.0</ele><time>2026-04-25T06:13:12.363Z</time></trkpt><trkpt lat="43.8129564" lon="11.0521407"><ele>42.0</ele><time>2026-04-25T06:13:15.181Z</time></trkpt><trkpt lat="43.8129892" lon="11.0522268"><ele>42.0</ele><time>2026-04-25T06:13:18.117Z</time></trkpt><trkpt lat="43.8130156" lon="11.0523086"><ele>42.0</ele><time>2026-04-25T06:13:21.861Z</time></trkpt><trkpt lat="43.8130672" lon="11.0523775"><ele>42.0</ele><time>2026-04-25T06:13:25.962Z</time></trkpt><trkpt lat="43.8130791" lon="11.0524681"><ele>42.0</ele><time>2026-04-25T06:13:30.02Z</time></trkpt><trkpt lat="43.8131166" lon="11.0525422"><ele>42.0</ele><time>2026-04-25T06:13:33.245Z</time></trkpt><trkpt lat="43.8131544" lon="11.0526202"><ele>42.0</ele><time>2026-04-25T06:13:36.66Z</time></trkpt><trkpt lat="43.8131995" lon="11.0527011"><ele>42.0</ele><time>2026-04-25T06:13:42Z</time></trkpt><trkpt lat="43.8132215" lon="11.0528055"><ele>42.0</ele><time>2026-04-25T06:13:50.021Z</time></trkpt><trkpt lat="43.8132709" lon="11.0528897"><ele>42.0</ele><time>2026-04-25T06:13:51.885Z</time></trkpt><trkpt lat="43.8133016" lon="11.052968"><ele>42.0</ele><time>2026-04-25T06:13:54.702Z</time></trkpt><trkpt lat="43.8133428" lon="11.0530547"><ele>42.0</ele><time>2026-04-25T06:13:57.912Z</time></trkpt><trkpt lat="43.8133994" lon="11.0531391"><ele>42.0</ele><time>2026-04-25T06:14:01.846Z</time></trkpt><trkpt lat="43.8134485" lon="11.053207"><ele>42.0</ele><time>2026-04-25T06:14:05.009Z</time></trkpt><trkpt lat="43.8134898" lon="11.0533038"><ele>42.0</ele><time>2026-04-25T06:14:09.74Z</time></trkpt><trkpt lat="43.8135625" lon="11.0533082"><ele>42.0</ele><time>2026-04-25T06:14:13.602Z</time></trkpt><trkpt lat="43.8135933" lon="11.0532037"><ele>42.0</ele><time>2026-04-25T06:14:16.783Z</time></trkpt><trkpt lat="43.8136197" lon="11.0531241"><ele>42.0</ele><time>2026-04-25T06:14:19.619Z</time></trkpt><trkpt lat="43.8136522" lon="11.0530273"><ele>42.0</ele><time>2026-04-25T06:14:22.926Z</time></trkpt><trkpt lat="43.8136885" lon="11.0529515"><ele>42.0</ele><time>2026-04-25T06:14:25.954Z</time></trkpt><trkpt lat="43.8137257" lon="11.0528777"><ele>42.0</ele><time>2026-04-25T06:14:31.38Z</time></trkpt><trkpt lat="43.8137798" lon="11.0527997"><ele>42.0</ele><time>2026-04-25T06:14:35.46Z</time></trkpt><trkpt lat="43.8138252" lon="11.0526885"><ele>42.0</ele><time>2026-04-25T06:14:38.945Z</time></trkpt><trkpt lat="43.813853" lon="11.0525892"><ele>42.0</ele><time>2026-04-25T06:14:43.007Z</time></trkpt><trkpt lat="43.8138924" lon="11.0524937"><ele>42.0</ele><time>2026-04-25T06:14:46.931Z</time></trkpt><trkpt lat="43.8139295" lon="11.0524231"><ele>42.0</ele><time>2026-04-25T06:14:49.958Z</time></trkpt><trkpt lat="43.8139485" lon="11.0523377"><ele>42.0</ele><time>2026-04-25T06:14:54.867Z</time></trkpt><trkpt lat="43.8139894" lon="11.052269"><ele>42.0</ele><time>2026-04-25T06:14:57.075Z</time></trkpt><trkpt lat="43.8140403" lon="11.0521902"><ele>42.0</ele><time>2026-04-25T06:14:59.852Z</time></trkpt><trkpt lat="43.8140842" lon="11.0521203"><ele>42.0</ele><time>2026-04-25T06:15:02.652Z</time></trkpt><trkpt lat="43.8141344" lon="11.0520346"><ele>42.0</ele><time>2026-04-25T06:15:05.756Z</time></trkpt><trkpt lat="43.814182" lon="11.0519434"><ele>42.0</ele><time>2026-04-25T06:15:08.901Z</time></trkpt><trkpt lat="43.8142299" lon="11.0518753"><ele>42.0</ele><time>2026-04-25T06:15:11.753Z</time></trkpt><trkpt lat="43.8142802" lon="11.0517996"><ele>42.0</ele><time>2026-04-25T06:15:15.813Z</time></trkpt><trkpt lat="43.8143305" lon="11.0517114"><ele>42.0</ele><time>2026-04-25T06:15:19.011Z</time></trkpt><trkpt lat="43.8143735" lon="11.0516357"><ele>42.0</ele><time>2026-04-25T06:15:21.874Z</time></trkpt><trkpt lat="43.8144097" lon="11.0515572"><ele>42.0</ele><time>2026-04-25T06:15:24.72Z</time></trkpt><trkpt lat="43.8144518" lon="11.051466"><ele>42.0</ele><time>2026-04-25T06:15:27.835Z</time></trkpt><trkpt lat="43.8144194" lon="11.0513505"><ele>41.666666666666664</ele><time>2026-04-25T06:15:30.993Z</time></trkpt><trkpt lat="43.8143843" lon="11.0512331"><ele>41.333333333333336</ele><time>2026-04-25T06:15:33.918Z</time></trkpt><trkpt lat="43.8144433" lon="11.0511976"><ele>41.0</ele><time>2026-04-25T06:15:36.834Z</time></trkpt><trkpt lat="43.8145229" lon="11.0512687"><ele>40.66666666666667</ele><time>2026-04-25T06:15:38.816Z</time></trkpt><trkpt lat="43.814581" lon="11.051319"><ele>40.333333333333336</ele><time>2026-04-25T06:15:40.719Z</time></trkpt><trkpt lat="43.8146431" lon="11.0512582"><ele>40.0</ele><time>2026-04-25T06:15:44.54Z</time></trkpt><trkpt lat="43.8146773" lon="11.0511756"><ele>40.0</ele><time>2026-04-25T06:15:47.336Z</time></trkpt><trkpt lat="43.8147035" lon="11.0510763"><ele>40.0</ele><time>2026-04-25T06:15:49.84Z</time></trkpt><trkpt lat="43.8147812" lon="11.0510095"><ele>40.0</ele><time>2026-04-25T06:15:53.944Z</time></trkpt><trkpt lat="43.8148217" lon="11.0508967"><ele>40.0</ele><time>2026-04-25T06:15:56.894Z</time></trkpt><trkpt lat="43.8148546" lon="11.0508054"><ele>40.0</ele><time>2026-04-25T06:15:59.732Z</time></trkpt><trkpt lat="43.8149151" lon="11.0507755"><ele>40.0</ele><time>2026-04-25T06:16:04.013Z</time></trkpt><trkpt lat="43.8149595" lon="11.050679"><ele>39.857142857142854</ele><time>2026-04-25T06:16:07.235Z</time></trkpt><trkpt lat="43.8149939" lon="11.0505976"><ele>39.714285714285715</ele><time>2026-04-25T06:16:10.061Z</time></trkpt><trkpt lat="43.8150065" lon="11.0504952"><ele>39.57142857142857</ele><time>2026-04-25T06:16:13.155Z</time></trkpt><trkpt lat="43.8149844" lon="11.0504073"><ele>39.42857142857143</ele><time>2026-04-25T06:16:15.655Z</time></trkpt><trkpt lat="43.8149567" lon="11.0503013"><ele>39.285714285714285</ele><time>2026-04-25T06:16:18.781Z</time></trkpt><trkpt lat="43.8149494" lon="11.0502057"><ele>39.142857142857146</ele><time>2026-04-25T06:16:21.912Z</time></trkpt><trkpt lat="43.8149083" lon="11.0501326"><ele>39.0</ele><time>2026-04-25T06:16:26.634Z</time></trkpt><trkpt lat="43.8149245" lon="11.0500329"><ele>39.0</ele><time>2026-04-25T06:16:30.397Z</time></trkpt><trkpt lat="43.814972" lon="11.0499593"><ele>39.0</ele><time>2026-04-25T06:16:34.12Z</time></trkpt><trkpt lat="43.8149044" lon="11.0499118"><ele>39.0</ele><time>2026-04-25T06:16:37.235Z</time></trkpt><trkpt lat="43.8149116" lon="11.0498073"><ele>39.0</ele><time>2026-04-25T06:16:40.958Z</time></trkpt><trkpt lat="43.8149246" lon="11.0497199"><ele>39.0</ele><time>2026-04-25T06:16:43.944Z</time></trkpt><trkpt lat="43.8149245" lon="11.0495994"><ele>39.0</ele><time>2026-04-25T06:16:47.972Z</time></trkpt><trkpt lat="43.8149607" lon="11.0494932"><ele>39.142857142857146</ele><time>2026-04-25T06:16:50.875Z</time></trkpt><trkpt lat="43.8149737" lon="11.0493941"><ele>39.285714285714285</ele><time>2026-04-25T06:16:54.013Z</time></trkpt><trkpt lat="43.8149895" lon="11.0493095"><ele>39.42857142857143</ele><time>2026-04-25T06:16:56.096Z</time></trkpt><trkpt lat="43.8149936" lon="11.0492035"><ele>39.57142857142857</ele><time>2026-04-25T06:16:58.938Z</time></trkpt><trkpt lat="43.8149973" lon="11.0491157"><ele>39.714285714285715</ele><time>2026-04-25T06:17:02.974Z</time></trkpt><trkpt lat="43.8149661" lon="11.0490251"><ele>39.857142857142854</ele><time>2026-04-25T06:17:06.993Z</time></trkpt><trkpt lat="43.8149458" lon="11.048918"><ele>40.0</ele><time>2026-04-25T06:17:10.078Z</time></trkpt><trkpt lat="43.8149315" lon="11.0488014"><ele>40.333333333333336</ele><time>2026-04-25T06:17:14.09Z</time></trkpt><trkpt lat="43.8149211" lon="11.0487039"><ele>40.66666666666667</ele><time>2026-04-25T06:17:17.401Z</time></trkpt><trkpt lat="43.8148971" lon="11.0486117"><ele>41.0</ele><time>2026-04-25T06:17:21.844Z</time></trkpt><trkpt lat="43.8148579" lon="11.0485186"><ele>41.333333333333336</ele><time>2026-04-25T06:17:24.927Z</time></trkpt><trkpt lat="43.8148141" lon="11.0484277"><ele>41.666666666666664</ele><time>2026-04-25T06:17:27.847Z</time></trkpt><trkpt lat="43.8147756" lon="11.0483419"><ele>42.0</ele><time>2026-04-25T06:17:31.226Z</time></trkpt><trkpt lat="43.8147375" lon="11.0482453"><ele>42.166666666666664</ele><time>2026-04-25T06:17:34.326Z</time></trkpt><trkpt lat="43.8147024" lon="11.0481612"><ele>42.333333333333336</ele><time>2026-04-25T06:17:37.131Z</time></trkpt><trkpt lat="43.8146563" lon="11.0480549"><ele>42.5</ele><time>2026-04-25T06:17:41.941Z</time></trkpt><trkpt lat="43.8146086" lon="11.0479649"><ele>42.66666666666667</ele><time>2026-04-25T06:17:44.962Z</time></trkpt><trkpt lat="43.8145567" lon="11.0478702"><ele>42.833333333333336</ele><time>2026-04-25T06:17:47.983Z</time></trkpt><trkpt lat="43.8145259" lon="11.0477785"><ele>43.0</ele><time>2026-04-25T06:17:51.925Z</time></trkpt><trkpt lat="43.8144787" lon="11.0476836"><ele>43.0</ele><time>2026-04-25T06:17:55.246Z</time></trkpt><trkpt lat="43.8144313" lon="11.0475854"><ele>43.0</ele><time>2026-04-25T06:17:59.505Z</time></trkpt><trkpt lat="43.8143811" lon="11.0475016"><ele>43.0</ele><time>2026-04-25T06:18:02.607Z</time></trkpt><trkpt lat="43.8143266" lon="11.0474215"><ele>43.0</ele><time>2026-04-25T06:18:06.001Z</time></trkpt><trkpt lat="43.81427" lon="11.0473439"><ele>43.0</ele><time>2026-04-25T06:18:09.793Z</time></trkpt><trkpt lat="43.8141912" lon="11.047344"><ele>43.0</ele><time>2026-04-25T06:18:14.988Z</time></trkpt><trkpt lat="43.8141384" lon="11.0472833"><ele>43.66666666666667</ele><time>2026-04-25T06:18:17.974Z</time></trkpt><trkpt lat="43.814095" lon="11.0471921"><ele>44.333333333333336</ele><time>2026-04-25T06:18:20.87Z</time></trkpt><trkpt lat="43.8141411" lon="11.0472695"><ele>45.0</ele><time>2026-04-25T06:18:21.786Z</time></trkpt><trkpt lat="43.8142059" lon="11.0472742"><ele>45.666666666666664</ele><time>2026-04-25T06:18:28.93Z</time></trkpt><trkpt lat="43.8142631" lon="11.0472271"><ele>46.33333333333333</ele><time>2026-04-25T06:18:36.545Z</time></trkpt><trkpt lat="43.8142268" lon="11.0470467"><ele>47.0</ele><time>2026-04-25T06:18:38.905Z</time></trkpt><trkpt lat="43.8142335" lon="11.0469441"><ele>47.0</ele><time>2026-04-25T06:18:45.968Z</time></trkpt><trkpt lat="43.8139714" lon="11.0468715"><ele>47.0</ele><time>2026-04-25T06:18:49.47Z</time></trkpt><trkpt lat="43.8138838" lon="11.0468191"><ele>47.0</ele><time>2026-04-25T06:18:51.931Z</time></trkpt><trkpt lat="43.8138253" lon="11.0467582"><ele>47.0</ele><time>2026-04-25T06:18:55.947Z</time></trkpt><trkpt lat="43.8137852" lon="11.04667"><ele>47.0</ele><time>2026-04-25T06:18:59.929Z</time></trkpt><trkpt lat="43.8137211" lon="11.0465806"><ele>47.0</ele><time>2026-04-25T06:19:03.605Z</time></trkpt><trkpt lat="43.8136519" lon="11.0465402"><ele>47.0</ele><time>2026-04-25T06:19:06.728Z</time></trkpt><trkpt lat="43.8135964" lon="11.0464561"><ele>47.0</ele><time>2026-04-25T06:19:10.971Z</time></trkpt><trkpt lat="43.8135498" lon="11.0463601"><ele>47.0</ele><time>2026-04-25T06:19:15.29Z</time></trkpt><trkpt lat="43.8135014" lon="11.046294"><ele>47.0</ele><time>2026-04-25T06:19:19.271Z</time></trkpt><trkpt lat="43.8134548" lon="11.0462095"><ele>47.0</ele><time>2026-04-25T06:19:23.669Z</time></trkpt><trkpt lat="43.8134609" lon="11.0461074"><ele>47.0</ele><time>2026-04-25T06:19:26.744Z</time></trkpt><trkpt lat="43.8134236" lon="11.046007"><ele>47.0</ele><time>2026-04-25T06:19:29.924Z</time></trkpt><trkpt lat="43.8133873" lon="11.0459288"><ele>47.0</ele><time>2026-04-25T06:19:32.952Z</time></trkpt><trkpt lat="43.8133544" lon="11.0458369"><ele>47.0</ele><time>2026-04-25T06:19:35.979Z</time></trkpt><trkpt lat="43.8133266" lon="11.0457505"><ele>47.0</ele><time>2026-04-25T06:19:38.894Z</time></trkpt><trkpt lat="43.8133025" lon="11.0456641"><ele>47.0</ele><time>2026-04-25T06:19:41.849Z</time></trkpt><trkpt lat="43.8132696" lon="11.0455551"><ele>47.285714285714285</ele><time>2026-04-25T06:19:45.955Z</time></trkpt><trkpt lat="43.8132477" lon="11.045447"><ele>47.57142857142857</ele><time>2026-04-25T06:19:52.209Z</time></trkpt><trkpt lat="43.8132169" lon="11.0453297"><ele>47.85714285714286</ele><time>2026-04-25T06:19:55.869Z</time></trkpt><trkpt lat="43.8131985" lon="11.045238"><ele>48.14285714285714</ele><time>2026-04-25T06:19:58.888Z</time></trkpt><trkpt lat="43.813176" lon="11.0451518"><ele>48.42857142857143</ele><time>2026-04-25T06:20:01.932Z</time></trkpt><trkpt lat="43.8131557" lon="11.0450579"><ele>48.714285714285715</ele><time>2026-04-25T06:20:05.91Z</time></trkpt><trkpt lat="43.8131365" lon="11.0449696"><ele>49.0</ele><time>2026-04-25T06:20:09.853Z</time></trkpt><trkpt lat="43.8131083" lon="11.0448901"><ele>49.42857142857143</ele><time>2026-04-25T06:20:12.91Z</time></trkpt><trkpt lat="43.8130857" lon="11.044788"><ele>49.85714285714286</ele><time>2026-04-25T06:20:15.93Z</time></trkpt><trkpt lat="43.8130606" lon="11.044704"><ele>50.285714285714285</ele><time>2026-04-25T06:20:18.71Z</time></trkpt><trkpt lat="43.8130342" lon="11.0446054"><ele>50.714285714285715</ele><time>2026-04-25T06:20:21.943Z</time></trkpt><trkpt lat="43.8130029" lon="11.0445277"><ele>51.142857142857146</ele><time>2026-04-25T06:20:25.981Z</time></trkpt><trkpt lat="43.8129966" lon="11.0444378"><ele>51.57142857142857</ele><time>2026-04-25T06:20:31.989Z</time></trkpt><trkpt lat="43.812985" lon="11.0443383"><ele>52.0</ele><time>2026-04-25T06:20:35.024Z</time></trkpt><trkpt lat="43.8129536" lon="11.044243"><ele>52.0</ele><time>2026-04-25T06:20:37.978Z</time></trkpt><trkpt lat="43.8129203" lon="11.044152"><ele>52.0</ele><time>2026-04-25T06:20:41.005Z</time></trkpt><trkpt lat="43.8128944" lon="11.044047"><ele>52.0</ele><time>2026-04-25T06:20:44.851Z</time></trkpt><trkpt lat="43.8128793" lon="11.0439565"><ele>52.0</ele><time>2026-04-25T06:20:48.511Z</time></trkpt><trkpt lat="43.8128641" lon="11.0438488"><ele>52.0</ele><time>2026-04-25T06:20:52.253Z</time></trkpt><trkpt lat="43.81285" lon="11.0437451"><ele>52.0</ele><time>2026-04-25T06:20:55.584Z</time></trkpt><trkpt lat="43.8128218" lon="11.0436512"><ele>52.0</ele><time>2026-04-25T06:20:58.99Z</time></trkpt><trkpt lat="43.812811" lon="11.0435452"><ele>51.857142857142854</ele><time>2026-04-25T06:21:02.987Z</time></trkpt><trkpt lat="43.8127842" lon="11.0434478"><ele>51.714285714285715</ele><time>2026-04-25T06:21:06.948Z</time></trkpt><trkpt lat="43.8127286" lon="11.0433719"><ele>51.57142857142857</ele><time>2026-04-25T06:21:10.769Z</time></trkpt><trkpt lat="43.8126885" lon="11.0433012"><ele>51.42857142857143</ele><time>2026-04-25T06:21:13.907Z</time></trkpt><trkpt lat="43.8126681" lon="11.0431941"><ele>51.28571428571429</ele><time>2026-04-25T06:21:17.35Z</time></trkpt><trkpt lat="43.8126454" lon="11.0430981"><ele>51.142857142857146</ele><time>2026-04-25T06:21:20.927Z</time></trkpt><trkpt lat="43.8126418" lon="11.04301"><ele>51.0</ele><time>2026-04-25T06:21:23.954Z</time></trkpt><trkpt lat="43.8126846" lon="11.0429344"><ele>50.85714285714286</ele><time>2026-04-25T06:21:26.927Z</time></trkpt><trkpt lat="43.8127059" lon="11.0428446"><ele>50.714285714285715</ele><time>2026-04-25T06:21:30.668Z</time></trkpt><trkpt lat="43.812684" lon="11.0427598"><ele>50.57142857142857</ele><time>2026-04-25T06:21:33.425Z</time></trkpt><trkpt lat="43.8126506" lon="11.0426785"><ele>50.42857142857143</ele><time>2026-04-25T06:21:36.171Z</time></trkpt><trkpt lat="43.8126147" lon="11.0425981"><ele>50.285714285714285</ele><time>2026-04-25T06:21:39.23Z</time></trkpt><trkpt lat="43.8125866" lon="11.0425029"><ele>50.142857142857146</ele><time>2026-04-25T06:21:42.611Z</time></trkpt><trkpt lat="43.8125771" lon="11.042401"><ele>50.0</ele><time>2026-04-25T06:21:46.941Z</time></trkpt><trkpt lat="43.8125625" lon="11.0423083"><ele>49.85714285714286</ele><time>2026-04-25T06:21:49.968Z</time></trkpt><trkpt lat="43.812558" lon="11.0422107"><ele>49.714285714285715</ele><time>2026-04-25T06:21:52.89Z</time></trkpt><trkpt lat="43.8125614" lon="11.0421111"><ele>49.57142857142857</ele><time>2026-04-25T06:21:55.964Z</time></trkpt><trkpt lat="43.8125825" lon="11.0420262"><ele>49.42857142857143</ele><time>2026-04-25T06:21:58.934Z</time></trkpt><trkpt lat="43.8125777" lon="11.0419331"><ele>49.285714285714285</ele><time>2026-04-25T06:22:02.969Z</time></trkpt><trkpt lat="43.8125885" lon="11.0418316"><ele>49.142857142857146</ele><time>2026-04-25T06:22:08.909Z</time></trkpt><trkpt lat="43.8126095" lon="11.0417324"><ele>49.0</ele><time>2026-04-25T06:22:12.942Z</time></trkpt><trkpt lat="43.8126202" lon="11.041588"><ele>49.0</ele><time>2026-04-25T06:22:18.996Z</time></trkpt><trkpt lat="43.8126325" lon="11.0414802"><ele>49.0</ele><time>2026-04-25T06:22:24.012Z</time></trkpt><trkpt lat="43.8126482" lon="11.0413922"><ele>49.0</ele><time>2026-04-25T06:22:27.964Z</time></trkpt><trkpt lat="43.8126495" lon="11.0412791"><ele>49.0</ele><time>2026-04-25T06:22:30.991Z</time></trkpt><trkpt lat="43.8126516" lon="11.0411758"><ele>49.0</ele><time>2026-04-25T06:22:34.509Z</time></trkpt><trkpt lat="43.8126501" lon="11.0410844"><ele>49.0</ele><time>2026-04-25T06:22:38.807Z</time></trkpt><trkpt lat="43.8126671" lon="11.0409792"><ele>49.0</ele><time>2026-04-25T06:22:42.986Z</time></trkpt><trkpt lat="43.8126769" lon="11.0408615"><ele>49.285714285714285</ele><time>2026-04-25T06:22:47.624Z</time></trkpt><trkpt lat="43.8126717" lon="11.0407702"><ele>49.57142857142857</ele><time>2026-04-25T06:22:51.668Z</time></trkpt><trkpt lat="43.8126923" lon="11.0406753"><ele>49.85714285714286</ele><time>2026-04-25T06:22:55.688Z</time></trkpt><trkpt lat="43.8127082" lon="11.040578"><ele>50.14285714285714</ele><time>2026-04-25T06:22:59.913Z</time></trkpt><trkpt lat="43.812731" lon="11.0404959"><ele>50.42857142857143</ele><time>2026-04-25T06:23:03.95Z</time></trkpt><trkpt lat="43.8127626" lon="11.040396"><ele>50.714285714285715</ele><time>2026-04-25T06:23:08.812Z</time></trkpt><trkpt lat="43.8128011" lon="11.0403115"><ele>51.0</ele><time>2026-04-25T06:23:12.247Z</time></trkpt><trkpt lat="43.8128252" lon="11.0402117"><ele>51.0</ele><time>2026-04-25T06:23:15.495Z</time></trkpt><trkpt lat="43.8128394" lon="11.0401213"><ele>51.0</ele><time>2026-04-25T06:23:18.972Z</time></trkpt><trkpt lat="43.8128842" lon="11.040042"><ele>51.0</ele><time>2026-04-25T06:23:24.307Z</time></trkpt><trkpt lat="43.8129549" lon="11.0400272"><ele>51.0</ele><time>2026-04-25T06:23:28.39Z</time></trkpt><trkpt lat="43.8130353" lon="11.040045"><ele>51.0</ele><time>2026-04-25T06:23:32.985Z</time></trkpt><trkpt lat="43.813091" lon="11.0400995"><ele>51.0</ele><time>2026-04-25T06:23:36.83Z</time></trkpt><trkpt lat="43.8131651" lon="11.0401207"><ele>51.0</ele><time>2026-04-25T06:23:40.941Z</time></trkpt><trkpt lat="43.8132296" lon="11.0401624"><ele>51.0</ele><time>2026-04-25T06:23:44.905Z</time></trkpt><trkpt lat="43.8133167" lon="11.0401951"><ele>51.0</ele><time>2026-04-25T06:23:49.827Z</time></trkpt><trkpt lat="43.8133975" lon="11.0402141"><ele>51.0</ele><time>2026-04-25T06:23:53.941Z</time></trkpt><trkpt lat="43.8134738" lon="11.0402406"><ele>51.0</ele><time>2026-04-25T06:23:56.945Z</time></trkpt><trkpt lat="43.8135446" lon="11.0402932"><ele>51.0</ele><time>2026-04-25T06:24:00.03Z</time></trkpt><trkpt lat="43.813601" lon="11.0403427"><ele>51.0</ele><time>2026-04-25T06:24:02.829Z</time></trkpt><trkpt lat="43.813665" lon="11.0403654"><ele>51.57142857142857</ele><time>2026-04-25T06:24:05.888Z</time></trkpt><trkpt lat="43.8137269" lon="11.0403933"><ele>52.142857142857146</ele><time>2026-04-25T06:24:09.952Z</time></trkpt><trkpt lat="43.8137906" lon="11.0404419"><ele>52.71428571428571</ele><time>2026-04-25T06:24:13.993Z</time></trkpt><trkpt lat="43.8138482" lon="11.0404963"><ele>53.285714285714285</ele><time>2026-04-25T06:24:17.918Z</time></trkpt><trkpt lat="43.8139126" lon="11.0405378"><ele>53.857142857142854</ele><time>2026-04-25T06:24:20.942Z</time></trkpt><trkpt lat="43.8139826" lon="11.0405594"><ele>54.42857142857142</ele><time>2026-04-25T06:24:23.971Z</time></trkpt><trkpt lat="43.8140667" lon="11.0405524"><ele>55.0</ele><time>2026-04-25T06:24:28.002Z</time></trkpt><trkpt lat="43.8141332" lon="11.040579"><ele>54.99999999999999</ele><time>2026-04-25T06:24:33.006Z</time></trkpt><trkpt lat="43.8142012" lon="11.0406137"><ele>55.0</ele><time>2026-04-25T06:24:36.711Z</time></trkpt><trkpt lat="43.8142693" lon="11.0406399"><ele>55.0</ele><time>2026-04-25T06:24:39.791Z</time></trkpt><trkpt lat="43.8143283" lon="11.040676"><ele>55.0</ele><time>2026-04-25T06:24:42.905Z</time></trkpt><trkpt lat="43.8143875" lon="11.0407064"><ele>55.0</ele><time>2026-04-25T06:24:45.986Z</time></trkpt><trkpt lat="43.8144546" lon="11.040743"><ele>54.99999999999999</ele><time>2026-04-25T06:24:49.961Z</time></trkpt><trkpt lat="43.8145005" lon="11.040827"><ele>55.0</ele><time>2026-04-25T06:24:53.924Z</time></trkpt><trkpt lat="43.8145298" lon="11.0407346"><ele>54.99999999999999</ele><time>2026-04-25T06:24:57.686Z</time></trkpt><trkpt lat="43.8144496" lon="11.040714"><ele>55.0</ele><time>2026-04-25T06:25:00.941Z</time></trkpt><trkpt lat="43.8143702" lon="11.0407244"><ele>55.0</ele><time>2026-04-25T06:25:03.967Z</time></trkpt><trkpt lat="43.8142916" lon="11.0406908"><ele>55.0</ele><time>2026-04-25T06:25:06.851Z</time></trkpt><trkpt lat="43.8142109" lon="11.0406676"><ele>54.99999999999999</ele><time>2026-04-25T06:25:10.508Z</time></trkpt><trkpt lat="43.8141517" lon="11.040635"><ele>55.0</ele><time>2026-04-25T06:25:13.589Z</time></trkpt><trkpt lat="43.8140819" lon="11.0405615"><ele>54.99999999999999</ele><time>2026-04-25T06:25:17.629Z</time></trkpt><trkpt lat="43.8140234" lon="11.0405126"><ele>55.0</ele><time>2026-04-25T06:25:20.391Z</time></trkpt><trkpt lat="43.8139544" lon="11.0405146"><ele>55.0</ele><time>2026-04-25T06:25:23.91Z</time></trkpt><trkpt lat="43.8138806" lon="11.0405083"><ele>55.0</ele><time>2026-04-25T06:25:28.95Z</time></trkpt><trkpt lat="43.8138073" lon="11.040482"><ele>55.0</ele><time>2026-04-25T06:25:32.912Z</time></trkpt><trkpt lat="43.8137431" lon="11.0404322"><ele>54.99999999999999</ele><time>2026-04-25T06:25:36.912Z</time></trkpt><trkpt lat="43.813665" lon="11.0404716"><ele>55.0</ele><time>2026-04-25T06:25:40.952Z</time></trkpt><trkpt lat="43.8136259" lon="11.0405459"><ele>54.99999999999999</ele><time>2026-04-25T06:25:43.973Z</time></trkpt><trkpt lat="43.8135656" lon="11.0405738"><ele>55.0</ele><time>2026-04-25T06:25:46.974Z</time></trkpt><trkpt lat="43.8134984" lon="11.0405918"><ele>55.0</ele><time>2026-04-25T06:25:49.995Z</time></trkpt><trkpt lat="43.8134355" lon="11.0406216"><ele>55.0</ele><time>2026-04-25T06:25:53.186Z</time></trkpt><trkpt lat="43.8133398" lon="11.0405465"><ele>54.99999999999999</ele><time>2026-04-25T06:25:56.729Z</time></trkpt><trkpt lat="43.8132574" lon="11.0405023"><ele>55.0</ele><time>2026-04-25T06:25:59.95Z</time></trkpt><trkpt lat="43.8131805" lon="11.0404429"><ele>54.666666666666664</ele><time>2026-04-25T06:26:02.893Z</time></trkpt><trkpt lat="43.8131367" lon="11.0403318"><ele>54.33333333333333</ele><time>2026-04-25T06:26:04.982Z</time></trkpt><trkpt lat="43.8131057" lon="11.0402374"><ele>54.0</ele><time>2026-04-25T06:26:06.995Z</time></trkpt><trkpt lat="43.8130473" lon="11.0401582"><ele>53.66666666666667</ele><time>2026-04-25T06:26:10.249Z</time></trkpt><trkpt lat="43.8129953" lon="11.0400828"><ele>53.333333333333336</ele><time>2026-04-25T06:26:13.588Z</time></trkpt><trkpt lat="43.8129931" lon="11.0399863"><ele>53.0</ele><time>2026-04-25T06:26:15.751Z</time></trkpt><trkpt lat="43.8129378" lon="11.0399358"><ele>53.00000000000001</ele><time>2026-04-25T06:26:18.827Z</time></trkpt><trkpt lat="43.8128642" lon="11.0399496"><ele>53.0</ele><time>2026-04-25T06:26:21.908Z</time></trkpt><trkpt lat="43.812809" lon="11.0400256"><ele>53.0</ele><time>2026-04-25T06:26:24.997Z</time></trkpt><trkpt lat="43.8127613" lon="11.0401468"><ele>53.0</ele><time>2026-04-25T06:26:28.409Z</time></trkpt><trkpt lat="43.8127407" lon="11.0402515"><ele>53.00000000000001</ele><time>2026-04-25T06:26:31.229Z</time></trkpt><trkpt lat="43.8127557" lon="11.0403654"><ele>53.0</ele><time>2026-04-25T06:26:34.304Z</time></trkpt><trkpt lat="43.8127588" lon="11.0404912"><ele>52.714285714285715</ele><time>2026-04-25T06:26:37.69Z</time></trkpt><trkpt lat="43.8127496" lon="11.0405963"><ele>52.42857142857142</ele><time>2026-04-25T06:26:40.986Z</time></trkpt><trkpt lat="43.8127745" lon="11.0406803"><ele>52.14285714285714</ele><time>2026-04-25T06:26:42.985Z</time></trkpt><trkpt lat="43.8127606" lon="11.0407804"><ele>51.85714285714286</ele><time>2026-04-25T06:26:46.371Z</time></trkpt><trkpt lat="43.812744" lon="11.0408784"><ele>51.57142857142857</ele><time>2026-04-25T06:26:49.828Z</time></trkpt><trkpt lat="43.8127433" lon="11.0409657"><ele>51.285714285714285</ele><time>2026-04-25T06:26:52.607Z</time></trkpt><trkpt lat="43.812722" lon="11.04106"><ele>51.0</ele><time>2026-04-25T06:26:55.729Z</time></trkpt><trkpt lat="43.8126981" lon="11.0411428"><ele>51.0</ele><time>2026-04-25T06:26:58.549Z</time></trkpt><trkpt lat="43.8126744" lon="11.0412442"><ele>51.0</ele><time>2026-04-25T06:27:01.951Z</time></trkpt><trkpt lat="43.8126552" lon="11.0413346"><ele>51.0</ele><time>2026-04-25T06:27:05.691Z</time></trkpt><trkpt lat="43.8126569" lon="11.0414393"><ele>51.0</ele><time>2026-04-25T06:27:09.791Z</time></trkpt><trkpt lat="43.8126401" lon="11.0415368"><ele>51.0</ele><time>2026-04-25T06:27:13.489Z</time></trkpt><trkpt lat="43.812629" lon="11.0416474"><ele>51.0</ele><time>2026-04-25T06:27:17.832Z</time></trkpt><trkpt lat="43.8126327" lon="11.0417548"><ele>50.714285714285715</ele><time>2026-04-25T06:27:21.872Z</time></trkpt><trkpt lat="43.8126487" lon="11.0418472"><ele>50.42857142857143</ele><time>2026-04-25T06:27:24.954Z</time></trkpt><trkpt lat="43.8126667" lon="11.0419329"><ele>50.14285714285714</ele><time>2026-04-25T06:27:27.945Z</time></trkpt><trkpt lat="43.8126406" lon="11.0420542"><ele>49.85714285714286</ele><time>2026-04-25T06:27:31.812Z</time></trkpt><trkpt lat="43.8126346" lon="11.0421668"><ele>49.57142857142857</ele><time>2026-04-25T06:27:35.852Z</time></trkpt><trkpt lat="43.8126278" lon="11.0422589"><ele>49.285714285714285</ele><time>2026-04-25T06:27:39.044Z</time></trkpt><trkpt lat="43.8126183" lon="11.0423465"><ele>49.0</ele><time>2026-04-25T06:27:42.153Z</time></trkpt><trkpt lat="43.8126464" lon="11.0424331"><ele>49.142857142857146</ele><time>2026-04-25T06:27:45.307Z</time></trkpt><trkpt lat="43.8126577" lon="11.0425465"><ele>49.285714285714285</ele><time>2026-04-25T06:27:49.348Z</time></trkpt><trkpt lat="43.8126565" lon="11.0426407"><ele>49.42857142857143</ele><time>2026-04-25T06:27:52.469Z</time></trkpt><trkpt lat="43.8126689" lon="11.0427325"><ele>49.57142857142857</ele><time>2026-04-25T06:27:55.607Z</time></trkpt><trkpt lat="43.8126988" lon="11.04281"><ele>49.714285714285715</ele><time>2026-04-25T06:27:58.449Z</time></trkpt><trkpt lat="43.8126996" lon="11.0428973"><ele>49.85714285714286</ele><time>2026-04-25T06:28:01.787Z</time></trkpt><trkpt lat="43.81272" lon="11.0430093"><ele>50.0</ele><time>2026-04-25T06:28:05.952Z</time></trkpt><trkpt lat="43.8127465" lon="11.0431038"><ele>50.00000000000001</ele><time>2026-04-25T06:28:08.99Z</time></trkpt><trkpt lat="43.812774" lon="11.0431856"><ele>50.0</ele><time>2026-04-25T06:28:11.987Z</time></trkpt><trkpt lat="43.8128016" lon="11.0432715"><ele>50.0</ele><time>2026-04-25T06:28:14.911Z</time></trkpt><trkpt lat="43.8128191" lon="11.0433582"><ele>50.0</ele><time>2026-04-25T06:28:17.73Z</time></trkpt><trkpt lat="43.8128515" lon="11.0434736"><ele>50.0</ele><time>2026-04-25T06:28:21.532Z</time></trkpt><trkpt lat="43.8128746" lon="11.0435843"><ele>50.00000000000001</ele><time>2026-04-25T06:28:24.909Z</time></trkpt><trkpt lat="43.8128174" lon="11.0436324"><ele>50.0</ele><time>2026-04-25T06:28:27.973Z</time></trkpt><trkpt lat="43.8128043" lon="11.0437216"><ele>50.142857142857146</ele><time>2026-04-25T06:28:30.992Z</time></trkpt><trkpt lat="43.8128064" lon="11.04382"><ele>50.285714285714285</ele><time>2026-04-25T06:28:33.95Z</time></trkpt><trkpt lat="43.8128025" lon="11.0439204"><ele>50.42857142857143</ele><time>2026-04-25T06:28:37.948Z</time></trkpt><trkpt lat="43.8128095" lon="11.0440075"><ele>50.57142857142857</ele><time>2026-04-25T06:28:40.945Z</time></trkpt><trkpt lat="43.8128305" lon="11.0440912"><ele>50.714285714285715</ele><time>2026-04-25T06:28:43.888Z</time></trkpt><trkpt lat="43.8128676" lon="11.0442011"><ele>50.85714285714286</ele><time>2026-04-25T06:28:50.044Z</time></trkpt><trkpt lat="43.8128835" lon="11.0442988"><ele>51.0</ele><time>2026-04-25T06:28:53.366Z</time></trkpt><trkpt lat="43.8129043" lon="11.0443968"><ele>51.142857142857146</ele><time>2026-04-25T06:28:57.368Z</time></trkpt><trkpt lat="43.8129218" lon="11.0444885"><ele>51.28571428571429</ele><time>2026-04-25T06:29:00.706Z</time></trkpt><trkpt lat="43.8129169" lon="11.0446126"><ele>51.42857142857143</ele><time>2026-04-25T06:29:04.986Z</time></trkpt><trkpt lat="43.8129271" lon="11.0447008"><ele>51.57142857142857</ele><time>2026-04-25T06:29:07.765Z</time></trkpt><trkpt lat="43.8129194" lon="11.0447922"><ele>51.714285714285715</ele><time>2026-04-25T06:29:11.149Z</time></trkpt><trkpt lat="43.812928" lon="11.0448918"><ele>51.857142857142854</ele><time>2026-04-25T06:29:14.266Z</time></trkpt><trkpt lat="43.8129586" lon="11.0449982"><ele>52.0</ele><time>2026-04-25T06:29:17.927Z</time></trkpt><trkpt lat="43.813003" lon="11.0450736"><ele>51.57142857142857</ele><time>2026-04-25T06:29:20.987Z</time></trkpt><trkpt lat="43.8130654" lon="11.0451021"><ele>51.142857142857146</ele><time>2026-04-25T06:29:22.987Z</time></trkpt><trkpt lat="43.8131331" lon="11.0451398"><ele>50.714285714285715</ele><time>2026-04-25T06:29:25.015Z</time></trkpt><trkpt lat="43.8131789" lon="11.0452096"><ele>50.285714285714285</ele><time>2026-04-25T06:29:27.764Z</time></trkpt><trkpt lat="43.8132058" lon="11.0452987"><ele>49.85714285714286</ele><time>2026-04-25T06:29:31.932Z</time></trkpt><trkpt lat="43.8132415" lon="11.045382"><ele>49.42857142857143</ele><time>2026-04-25T06:29:34.866Z</time></trkpt><trkpt lat="43.8132772" lon="11.0454591"><ele>49.0</ele><time>2026-04-25T06:29:37.948Z</time></trkpt><trkpt lat="43.8133172" lon="11.0455333"><ele>48.99999999999999</ele><time>2026-04-25T06:29:41.925Z</time></trkpt><trkpt lat="43.8133496" lon="11.0456455"><ele>49.0</ele><time>2026-04-25T06:29:45.992Z</time></trkpt><trkpt lat="43.8133646" lon="11.0457525"><ele>49.0</ele><time>2026-04-25T06:29:49.945Z</time></trkpt><trkpt lat="43.8133969" lon="11.0458569"><ele>49.0</ele><time>2026-04-25T06:29:53.96Z</time></trkpt><trkpt lat="43.8134386" lon="11.0459597"><ele>48.99999999999999</ele><time>2026-04-25T06:29:58.012Z</time></trkpt><trkpt lat="43.8134779" lon="11.0460583"><ele>49.0</ele><time>2026-04-25T06:30:02.006Z</time></trkpt><trkpt lat="43.8135011" lon="11.0461459"><ele>48.714285714285715</ele><time>2026-04-25T06:30:05.69Z</time></trkpt><trkpt lat="43.8135388" lon="11.0462343"><ele>48.42857142857143</ele><time>2026-04-25T06:30:09.369Z</time></trkpt><trkpt lat="43.8135772" lon="11.0463113"><ele>48.14285714285714</ele><time>2026-04-25T06:30:12.708Z</time></trkpt><trkpt lat="43.8136166" lon="11.0463856"><ele>47.85714285714286</ele><time>2026-04-25T06:30:15.768Z</time></trkpt><trkpt lat="43.8136562" lon="11.0464715"><ele>47.57142857142857</ele><time>2026-04-25T06:30:19.169Z</time></trkpt><trkpt lat="43.8137031" lon="11.046547"><ele>47.285714285714285</ele><time>2026-04-25T06:30:22.21Z</time></trkpt><trkpt lat="43.81376" lon="11.0466238"><ele>47.0</ele><time>2026-04-25T06:30:25.931Z</time></trkpt><trkpt lat="43.813767" lon="11.0467198"><ele>47.0</ele><time>2026-04-25T06:30:29.907Z</time></trkpt><trkpt lat="43.8138441" lon="11.0467727"><ele>47.0</ele><time>2026-04-25T06:30:32.927Z</time></trkpt><trkpt lat="43.8139161" lon="11.0468211"><ele>47.0</ele><time>2026-04-25T06:30:35.73Z</time></trkpt><trkpt lat="43.813968" lon="11.046931"><ele>47.0</ele><time>2026-04-25T06:30:40.347Z</time></trkpt><trkpt lat="43.8140089" lon="11.0470038"><ele>47.0</ele><time>2026-04-25T06:30:43.388Z</time></trkpt><trkpt lat="43.8140561" lon="11.0470816"><ele>47.0</ele><time>2026-04-25T06:30:46.769Z</time></trkpt><trkpt lat="43.8141016" lon="11.0471464"><ele>47.0</ele><time>2026-04-25T06:30:49.977Z</time></trkpt><trkpt lat="43.8141485" lon="11.0472141"><ele>47.0</ele><time>2026-04-25T06:30:52.927Z</time></trkpt><trkpt lat="43.8141996" lon="11.0472717"><ele>47.0</ele><time>2026-04-25T06:30:56.905Z</time></trkpt><trkpt lat="43.8142418" lon="11.0473439"><ele>47.0</ele><time>2026-04-25T06:30:59.968Z</time></trkpt><trkpt lat="43.8142885" lon="11.0474206"><ele>47.0</ele><time>2026-04-25T06:31:03.966Z</time></trkpt><trkpt lat="43.8143271" lon="11.0474922"><ele>47.0</ele><time>2026-04-25T06:31:06.975Z</time></trkpt><trkpt lat="43.8143609" lon="11.0475698"><ele>47.0</ele><time>2026-04-25T06:31:09.995Z</time></trkpt><trkpt lat="43.8144162" lon="11.0476607"><ele>46.42857142857143</ele><time>2026-04-25T06:31:14.104Z</time></trkpt><trkpt lat="43.8144529" lon="11.0477436"><ele>45.857142857142854</ele><time>2026-04-25T06:31:17.229Z</time></trkpt><trkpt lat="43.8144961" lon="11.0478358"><ele>45.28571428571429</ele><time>2026-04-25T06:31:20.951Z</time></trkpt><trkpt lat="43.8145458" lon="11.0479184"><ele>44.714285714285715</ele><time>2026-04-25T06:31:25.929Z</time></trkpt><trkpt lat="43.8145854" lon="11.0479942"><ele>44.142857142857146</ele><time>2026-04-25T06:31:28.899Z</time></trkpt><trkpt lat="43.8146294" lon="11.0480756"><ele>43.57142857142858</ele><time>2026-04-25T06:31:31.918Z</time></trkpt><trkpt lat="43.8146763" lon="11.0481521"><ele>43.0</ele><time>2026-04-25T06:31:34.948Z</time></trkpt><trkpt lat="43.8147277" lon="11.0482386"><ele>42.85714285714286</ele><time>2026-04-25T06:31:38.964Z</time></trkpt><trkpt lat="43.8147536" lon="11.0483236"><ele>42.714285714285715</ele><time>2026-04-25T06:31:42.014Z</time></trkpt><trkpt lat="43.8147936" lon="11.0484361"><ele>42.57142857142857</ele><time>2026-04-25T06:31:46.472Z</time></trkpt><trkpt lat="43.8148246" lon="11.0485197"><ele>42.42857142857143</ele><time>2026-04-25T06:31:50.01Z</time></trkpt><trkpt lat="43.8148579" lon="11.0486039"><ele>42.285714285714285</ele><time>2026-04-25T06:31:53.512Z</time></trkpt><trkpt lat="43.8148846" lon="11.0486855"><ele>42.142857142857146</ele><time>2026-04-25T06:31:56.978Z</time></trkpt><trkpt lat="43.8149107" lon="11.0487762"><ele>42.0</ele><time>2026-04-25T06:31:59.911Z</time></trkpt><trkpt lat="43.8149346" lon="11.0488633"><ele>42.0</ele><time>2026-04-25T06:32:02.907Z</time></trkpt><trkpt lat="43.8149553" lon="11.0489637"><ele>42.0</ele><time>2026-04-25T06:32:05.89Z</time></trkpt><trkpt lat="43.8149651" lon="11.0490501"><ele>42.0</ele><time>2026-04-25T06:32:09.932Z</time></trkpt><trkpt lat="43.8149815" lon="11.0491601"><ele>42.0</ele><time>2026-04-25T06:32:14.029Z</time></trkpt><trkpt lat="43.814996" lon="11.0492534"><ele>42.0</ele><time>2026-04-25T06:32:18.011Z</time></trkpt><trkpt lat="43.8149969" lon="11.049355"><ele>42.0</ele><time>2026-04-25T06:32:21.906Z</time></trkpt><trkpt lat="43.8149788" lon="11.0494434"><ele>42.0</ele><time>2026-04-25T06:32:24.948Z</time></trkpt><trkpt lat="43.8149828" lon="11.0495463"><ele>41.714285714285715</ele><time>2026-04-25T06:32:27.969Z</time></trkpt><trkpt lat="43.8149709" lon="11.0496627"><ele>41.42857142857143</ele><time>2026-04-25T06:32:31.951Z</time></trkpt><trkpt lat="43.814953" lon="11.0497774"><ele>41.14285714285714</ele><time>2026-04-25T06:32:36.065Z</time></trkpt><trkpt lat="43.8149406" lon="11.0498703"><ele>40.85714285714286</ele><time>2026-04-25T06:32:39.814Z</time></trkpt><trkpt lat="43.8149405" lon="11.0499658"><ele>40.57142857142857</ele><time>2026-04-25T06:32:43.553Z</time></trkpt><trkpt lat="43.8149334" lon="11.0500587"><ele>40.285714285714285</ele><time>2026-04-25T06:32:47.546Z</time></trkpt><trkpt lat="43.8149175" lon="11.0501591"><ele>40.0</ele><time>2026-04-25T06:32:51.988Z</time></trkpt><trkpt lat="43.8149046" lon="11.050264"><ele>40.0</ele><time>2026-04-25T06:32:55.729Z</time></trkpt><trkpt lat="43.8148877" lon="11.0503743"><ele>40.0</ele><time>2026-04-25T06:32:59.487Z</time></trkpt><trkpt lat="43.814878" lon="11.050489"><ele>40.0</ele><time>2026-04-25T06:33:03.535Z</time></trkpt><trkpt lat="43.8148758" lon="11.0505837"><ele>40.0</ele><time>2026-04-25T06:33:06.708Z</time></trkpt><trkpt lat="43.8148625" lon="11.0506796"><ele>40.0</ele><time>2026-04-25T06:33:09.832Z</time></trkpt><trkpt lat="43.8148228" lon="11.0507583"><ele>40.0</ele><time>2026-04-25T06:33:12.648Z</time></trkpt><trkpt lat="43.8147816" lon="11.0508307"><ele>40.0</ele><time>2026-04-25T06:33:15.945Z</time></trkpt><trkpt lat="43.8147408" lon="11.0509016"><ele>40.0</ele><time>2026-04-25T06:33:18.889Z</time></trkpt><trkpt lat="43.8146953" lon="11.0509731"><ele>40.0</ele><time>2026-04-25T06:33:21.973Z</time></trkpt><trkpt lat="43.8146577" lon="11.0510629"><ele>40.0</ele><time>2026-04-25T06:33:25.711Z</time></trkpt><trkpt lat="43.8146143" lon="11.0511393"><ele>40.0</ele><time>2026-04-25T06:33:28.771Z</time></trkpt><trkpt lat="43.814567" lon="11.0512214"><ele>40.0</ele><time>2026-04-25T06:33:33.954Z</time></trkpt><trkpt lat="43.814514" lon="11.0513073"><ele>40.0</ele><time>2026-04-25T06:33:38.033Z</time></trkpt><trkpt lat="43.814471" lon="11.0513783"><ele>40.0</ele><time>2026-04-25T06:33:41.729Z</time></trkpt><trkpt lat="43.8143831" lon="11.0514008"><ele>40.16666666666667</ele><time>2026-04-25T06:33:46.665Z</time></trkpt><trkpt lat="43.8143107" lon="11.0513681"><ele>40.333333333333336</ele><time>2026-04-25T06:33:50.506Z</time></trkpt><trkpt lat="43.8142457" lon="11.0513512"><ele>40.5</ele><time>2026-04-25T06:33:54.671Z</time></trkpt><trkpt lat="43.8141881" lon="11.0512782"><ele>40.666666666666664</ele><time>2026-04-25T06:33:57.531Z</time></trkpt><trkpt lat="43.8141125" lon="11.0511889"><ele>40.83333333333333</ele><time>2026-04-25T06:34:04.941Z</time></trkpt><trkpt lat="43.8140605" lon="11.0511357"><ele>41.0</ele><time>2026-04-25T06:34:07.967Z</time></trkpt><trkpt lat="43.8139946" lon="11.0510984"><ele>41.0</ele><time>2026-04-25T06:34:12.898Z</time></trkpt><trkpt lat="43.8138225" lon="11.0513572"><ele>41.0</ele><time>2026-04-25T06:34:26.905Z</time></trkpt><trkpt lat="43.8137417" lon="11.0514502"><ele>41.0</ele><time>2026-04-25T06:34:32.959Z</time></trkpt><trkpt lat="43.813676" lon="11.0514842"><ele>41.0</ele><time>2026-04-25T06:34:37.527Z</time></trkpt><trkpt lat="43.8135991" lon="11.0514955"><ele>40.99999999999999</ele><time>2026-04-25T06:34:41.93Z</time></trkpt><trkpt lat="43.8135386" lon="11.0514493"><ele>41.0</ele><time>2026-04-25T06:34:45.966Z</time></trkpt><trkpt lat="43.8134695" lon="11.0514055"><ele>41.0</ele><time>2026-04-25T06:34:50.899Z</time></trkpt><trkpt lat="43.8134199" lon="11.0513428"><ele>41.0</ele><time>2026-04-25T06:34:54.864Z</time></trkpt><trkpt lat="43.8133432" lon="11.0513055"><ele>41.0</ele><time>2026-04-25T06:34:57.969Z</time></trkpt><trkpt lat="43.8132986" lon="11.0512233"><ele>40.99999999999999</ele><time>2026-04-25T06:35:01.011Z</time></trkpt><trkpt lat="43.8133" lon="11.0511207"><ele>41.0</ele><time>2026-04-25T06:35:04.788Z</time></trkpt><trkpt lat="43.8133305" lon="11.0510275"><ele>40.99999999999999</ele><time>2026-04-25T06:35:09.745Z</time></trkpt><trkpt lat="43.8133793" lon="11.0509494"><ele>41.0</ele><time>2026-04-25T06:35:14.995Z</time></trkpt><trkpt lat="43.8134218" lon="11.0508508"><ele>41.0</ele><time>2026-04-25T06:35:18.434Z</time></trkpt><trkpt lat="43.8134595" lon="11.0507797"><ele>41.0</ele><time>2026-04-25T06:35:20.569Z</time></trkpt><trkpt lat="43.8134943" lon="11.0506967"><ele>41.0</ele><time>2026-04-25T06:35:23.931Z</time></trkpt><trkpt lat="43.8135284" lon="11.0506027"><ele>40.99999999999999</ele><time>2026-04-25T06:35:27.909Z</time></trkpt><trkpt lat="43.8134641" lon="11.0505419"><ele>41.0</ele><time>2026-04-25T06:35:30.95Z</time></trkpt><trkpt lat="43.8133906" lon="11.0505048"><ele>40.99999999999999</ele><time>2026-04-25T06:35:34.013Z</time></trkpt><trkpt lat="43.8133248" lon="11.0504947"><ele>41.0</ele><time>2026-04-25T06:35:36.811Z</time></trkpt><trkpt lat="43.813258" lon="11.0504981"><ele>41.0</ele><time>2026-04-25T06:35:39.887Z</time></trkpt><trkpt lat="43.8131809" lon="11.0505365"><ele>41.0</ele><time>2026-04-25T06:35:43.826Z</time></trkpt><trkpt lat="43.8131133" lon="11.0505441"><ele>41.0</ele><time>2026-04-25T06:35:46.868Z</time></trkpt><trkpt lat="43.8130443" lon="11.0505502"><ele>40.99999999999999</ele><time>2026-04-25T06:35:49.951Z</time></trkpt><trkpt lat="43.8130389" lon="11.0504507"><ele>41.0</ele><time>2026-04-25T06:35:54.01Z</time></trkpt><trkpt lat="43.8131222" lon="11.0504569"><ele>40.99999999999999</ele><time>2026-04-25T06:35:56.914Z</time></trkpt><trkpt lat="43.8131844" lon="11.0504417"><ele>41.0</ele><time>2026-04-25T06:36:00.95Z</time></trkpt><trkpt lat="43.8132561" lon="11.0503912"><ele>41.0</ele><time>2026-04-25T06:36:04.985Z</time></trkpt><trkpt lat="43.8133327" lon="11.0503689"><ele>41.0</ele><time>2026-04-25T06:36:08.907Z</time></trkpt><trkpt lat="43.8133997" lon="11.0504235"><ele>41.0</ele><time>2026-04-25T06:36:11.791Z</time></trkpt><trkpt lat="43.8134511" lon="11.0504984"><ele>40.99999999999999</ele><time>2026-04-25T06:36:14.825Z</time></trkpt><trkpt lat="43.813502" lon="11.0505592"><ele>41.0</ele><time>2026-04-25T06:36:17.563Z</time></trkpt><trkpt lat="43.813537" lon="11.0506505"><ele>40.857142857142854</ele><time>2026-04-25T06:36:20.607Z</time></trkpt><trkpt lat="43.8134926" lon="11.0507353"><ele>40.714285714285715</ele><time>2026-04-25T06:36:23.65Z</time></trkpt><trkpt lat="43.8134457" lon="11.0508187"><ele>40.57142857142857</ele><time>2026-04-25T06:36:26.67Z</time></trkpt><trkpt lat="43.8133999" lon="11.0508979"><ele>40.42857142857143</ele><time>2026-04-25T06:36:29.732Z</time></trkpt><trkpt lat="43.8133554" lon="11.0509838"><ele>40.285714285714285</ele><time>2026-04-25T06:36:32.979Z</time></trkpt><trkpt lat="43.8133178" lon="11.0510573"><ele>40.14285714285714</ele><time>2026-04-25T06:36:35.926Z</time></trkpt><trkpt lat="43.8133465" lon="11.0511364"><ele>40.0</ele><time>2026-04-25T06:36:39.961Z</time></trkpt><trkpt lat="43.8133818" lon="11.0512117"><ele>40.16666666666667</ele><time>2026-04-25T06:36:42.99Z</time></trkpt><trkpt lat="43.813448" lon="11.0512786"><ele>40.333333333333336</ele><time>2026-04-25T06:36:46.404Z</time></trkpt><trkpt lat="43.8135048" lon="11.0513395"><ele>40.5</ele><time>2026-04-25T06:36:49.385Z</time></trkpt><trkpt lat="43.8135714" lon="11.051406"><ele>40.666666666666664</ele><time>2026-04-25T06:36:52.965Z</time></trkpt><trkpt lat="43.8136244" lon="11.0514539"><ele>40.83333333333333</ele><time>2026-04-25T06:36:55.671Z</time></trkpt><trkpt lat="43.8136954" lon="11.0514821"><ele>41.0</ele><time>2026-04-25T06:36:59.931Z</time></trkpt><trkpt lat="43.8137638" lon="11.0514121"><ele>41.0</ele><time>2026-04-25T06:37:03.889Z</time></trkpt><trkpt lat="43.8138252" lon="11.0513609"><ele>41.0</ele><time>2026-04-25T06:37:06.867Z</time></trkpt><trkpt lat="43.8138872" lon="11.0513255"><ele>41.0</ele><time>2026-04-25T06:37:10.011Z</time></trkpt><trkpt lat="43.8139178" lon="11.0512225"><ele>41.0</ele><time>2026-04-25T06:37:12.924Z</time></trkpt><trkpt lat="43.8139576" lon="11.0511254"><ele>41.0</ele><time>2026-04-25T06:37:15.947Z</time></trkpt><trkpt lat="43.8140028" lon="11.0510551"><ele>41.0</ele><time>2026-04-25T06:37:18.972Z</time></trkpt><trkpt lat="43.8140736" lon="11.0511279"><ele>41.0</ele><time>2026-04-25T06:37:21.989Z</time></trkpt><trkpt lat="43.8141373" lon="11.0512029"><ele>41.0</ele><time>2026-04-25T06:37:25.019Z</time></trkpt><trkpt lat="43.8142012" lon="11.0512495"><ele>41.0</ele><time>2026-04-25T06:37:28.033Z</time></trkpt><trkpt lat="43.8142574" lon="11.0513015"><ele>41.0</ele><time>2026-04-25T06:37:30.953Z</time></trkpt><trkpt lat="43.8143162" lon="11.0513641"><ele>41.0</ele><time>2026-04-25T06:37:33.975Z</time></trkpt><trkpt lat="43.81437" lon="11.0514435"><ele>41.0</ele><time>2026-04-25T06:37:36.851Z</time></trkpt><trkpt lat="43.814392" lon="11.0515512"><ele>41.14285714285714</ele><time>2026-04-25T06:37:40.847Z</time></trkpt><trkpt lat="43.8143944" lon="11.0516435"><ele>41.285714285714285</ele><time>2026-04-25T06:37:43.909Z</time></trkpt><trkpt lat="43.8143328" lon="11.0517066"><ele>41.42857142857143</ele><time>2026-04-25T06:37:46.959Z</time></trkpt><trkpt lat="43.8142857" lon="11.0517882"><ele>41.57142857142857</ele><time>2026-04-25T06:37:49.926Z</time></trkpt><trkpt lat="43.8142443" lon="11.051879"><ele>41.714285714285715</ele><time>2026-04-25T06:37:53.001Z</time></trkpt><trkpt lat="43.8141948" lon="11.0519552"><ele>41.857142857142854</ele><time>2026-04-25T06:37:56.009Z</time></trkpt><trkpt lat="43.8141442" lon="11.0520261"><ele>42.0</ele><time>2026-04-25T06:37:59.034Z</time></trkpt><trkpt lat="43.8141067" lon="11.0520992"><ele>42.0</ele><time>2026-04-25T06:38:01.951Z</time></trkpt><trkpt lat="43.8140476" lon="11.0521427"><ele>42.0</ele><time>2026-04-25T06:38:04.912Z</time></trkpt><trkpt lat="43.8140077" lon="11.0522335"><ele>42.0</ele><time>2026-04-25T06:38:08.929Z</time></trkpt><trkpt lat="43.8139782" lon="11.0523139"><ele>42.0</ele><time>2026-04-25T06:38:13.825Z</time></trkpt><trkpt lat="43.8139346" lon="11.052397"><ele>42.0</ele><time>2026-04-25T06:38:16.908Z</time></trkpt><trkpt lat="43.8139015" lon="11.0524851"><ele>42.0</ele><time>2026-04-25T06:38:19.948Z</time></trkpt><trkpt lat="43.8138548" lon="11.0525689"><ele>42.0</ele><time>2026-04-25T06:38:23.006Z</time></trkpt><trkpt lat="43.8138107" lon="11.0526617"><ele>42.285714285714285</ele><time>2026-04-25T06:38:26.345Z</time></trkpt><trkpt lat="43.8137739" lon="11.052739"><ele>42.57142857142857</ele><time>2026-04-25T06:38:29.427Z</time></trkpt><trkpt lat="43.8137489" lon="11.0528205"><ele>42.85714285714286</ele><time>2026-04-25T06:38:32.51Z</time></trkpt><trkpt lat="43.81372" lon="11.0529112"><ele>43.14285714285714</ele><time>2026-04-25T06:38:35.894Z</time></trkpt><trkpt lat="43.8136869" lon="11.0529872"><ele>43.42857142857143</ele><time>2026-04-25T06:38:38.919Z</time></trkpt><trkpt lat="43.8136469" lon="11.0530719"><ele>43.714285714285715</ele><time>2026-04-25T06:38:42.61Z</time></trkpt><trkpt lat="43.813608" lon="11.0531522"><ele>44.0</ele><time>2026-04-25T06:38:45.686Z</time></trkpt><trkpt lat="43.8135757" lon="11.0532296"><ele>43.85714285714286</ele><time>2026-04-25T06:38:48.771Z</time></trkpt><trkpt lat="43.8135371" lon="11.0533046"><ele>43.714285714285715</ele><time>2026-04-25T06:38:51.925Z</time></trkpt><trkpt lat="43.8134865" lon="11.0533606"><ele>43.57142857142857</ele><time>2026-04-25T06:38:54.892Z</time></trkpt><trkpt lat="43.8134832" lon="11.0534711"><ele>43.42857142857143</ele><time>2026-04-25T06:38:58.99Z</time></trkpt><trkpt lat="43.8135261" lon="11.0535395"><ele>43.285714285714285</ele><time>2026-04-25T06:39:01.457Z</time></trkpt><trkpt lat="43.8135712" lon="11.0536102"><ele>43.142857142857146</ele><time>2026-04-25T06:39:04.245Z</time></trkpt><trkpt lat="43.8136125" lon="11.0537091"><ele>43.0</ele><time>2026-04-25T06:39:07.665Z</time></trkpt><trkpt lat="43.8136372" lon="11.0538011"><ele>43.0</ele><time>2026-04-25T06:39:10.548Z</time></trkpt><trkpt lat="43.8136546" lon="11.0539169"><ele>43.0</ele><time>2026-04-25T06:39:14.271Z</time></trkpt><trkpt lat="43.813622" lon="11.0540206"><ele>43.0</ele><time>2026-04-25T06:39:17.048Z</time></trkpt><trkpt lat="43.8135552" lon="11.0541072"><ele>43.0</ele><time>2026-04-25T06:39:19.81Z</time></trkpt><trkpt lat="43.8134946" lon="11.054141"><ele>43.0</ele><time>2026-04-25T06:39:21.685Z</time></trkpt><trkpt lat="43.8134139" lon="11.0541792"><ele>43.0</ele><time>2026-04-25T06:39:24.488Z</time></trkpt><trkpt lat="43.8133499" lon="11.0541454"><ele>42.42857142857143</ele><time>2026-04-25T06:39:26.328Z</time></trkpt><trkpt lat="43.8132955" lon="11.0540933"><ele>41.85714285714286</ele><time>2026-04-25T06:39:28.77Z</time></trkpt><trkpt lat="43.8132134" lon="11.0540823"><ele>41.28571428571429</ele><time>2026-04-25T06:39:32.484Z</time></trkpt><trkpt lat="43.8131493" lon="11.0540333"><ele>40.714285714285715</ele><time>2026-04-25T06:39:36.926Z</time></trkpt><trkpt lat="43.8130919" lon="11.053955"><ele>40.14285714285714</ele><time>2026-04-25T06:39:40.889Z</time></trkpt><trkpt lat="43.8130466" lon="11.0538831"><ele>39.57142857142858</ele><time>2026-04-25T06:39:43.97Z</time></trkpt><trkpt lat="43.8129942" lon="11.0538198"><ele>39.0</ele><time>2026-04-25T06:39:47.971Z</time></trkpt><trkpt lat="43.8129279" lon="11.0537487"><ele>39.0</ele><time>2026-04-25T06:39:52.248Z</time></trkpt><trkpt lat="43.8128706" lon="11.0536728"><ele>39.0</ele><time>2026-04-25T06:39:55.927Z</time></trkpt><trkpt lat="43.8128189" lon="11.0536147"><ele>39.0</ele><time>2026-04-25T06:39:58.986Z</time></trkpt><trkpt lat="43.8127644" lon="11.0535489"><ele>39.0</ele><time>2026-04-25T06:40:02.99Z</time></trkpt><trkpt lat="43.8127207" lon="11.0534677"><ele>39.0</ele><time>2026-04-25T06:40:07.006Z</time></trkpt><trkpt lat="43.8126736" lon="11.0534053"><ele>39.0</ele><time>2026-04-25T06:40:09.944Z</time></trkpt><trkpt lat="43.8126233" lon="11.0533463"><ele>39.0</ele><time>2026-04-25T06:40:12.883Z</time></trkpt><trkpt lat="43.8125672" lon="11.0532878"><ele>39.285714285714285</ele><time>2026-04-25T06:40:15.951Z</time></trkpt><trkpt lat="43.8125123" lon="11.0532337"><ele>39.57142857142857</ele><time>2026-04-25T06:40:18.912Z</time></trkpt><trkpt lat="43.8124487" lon="11.0531517"><ele>39.857142857142854</ele><time>2026-04-25T06:40:23.006Z</time></trkpt><trkpt lat="43.8123926" lon="11.0530911"><ele>40.14285714285714</ele><time>2026-04-25T06:40:27.969Z</time></trkpt><trkpt lat="43.8123328" lon="11.0530219"><ele>40.42857142857143</ele><time>2026-04-25T06:40:31.985Z</time></trkpt><trkpt lat="43.8123627" lon="11.0529381"><ele>40.71428571428571</ele><time>2026-04-25T06:40:34.936Z</time></trkpt><trkpt lat="43.8124092" lon="11.0528606"><ele>41.0</ele><time>2026-04-25T06:40:37.825Z</time></trkpt><trkpt lat="43.8124571" lon="11.0527945"><ele>40.99999999999999</ele><time>2026-04-25T06:40:40.986Z</time></trkpt><trkpt lat="43.8125063" lon="11.0527095"><ele>41.0</ele><time>2026-04-25T06:40:44.591Z</time></trkpt><trkpt lat="43.8125436" lon="11.0526184"><ele>41.0</ele><time>2026-04-25T06:40:47.925Z</time></trkpt><trkpt lat="43.8125864" lon="11.0525489"><ele>41.0</ele><time>2026-04-25T06:40:50.669Z</time></trkpt><trkpt lat="43.8126397" lon="11.0524749"><ele>41.0</ele><time>2026-04-25T06:40:53.711Z</time></trkpt><trkpt lat="43.8126885" lon="11.0524072"><ele>40.99999999999999</ele><time>2026-04-25T06:40:56.769Z</time></trkpt><trkpt lat="43.8127437" lon="11.0523501"><ele>41.0</ele><time>2026-04-25T06:40:59.827Z</time></trkpt><trkpt lat="43.8127987" lon="11.052297"><ele>41.14285714285714</ele><time>2026-04-25T06:41:02.945Z</time></trkpt><trkpt lat="43.8128758" lon="11.0522622"><ele>41.285714285714285</ele><time>2026-04-25T06:41:07.987Z</time></trkpt><trkpt lat="43.8129302" lon="11.0522116"><ele>41.42857142857143</ele><time>2026-04-25T06:41:11.098Z</time></trkpt><trkpt lat="43.8129169" lon="11.0521254"><ele>41.57142857142857</ele><time>2026-04-25T06:41:13.89Z</time></trkpt><trkpt lat="43.8128776" lon="11.0520496"><ele>41.714285714285715</ele><time>2026-04-25T06:41:16.954Z</time></trkpt><trkpt lat="43.8128374" lon="11.0519674"><ele>41.857142857142854</ele><time>2026-04-25T06:41:20.909Z</time></trkpt><trkpt lat="43.8127889" lon="11.0519052"><ele>42.0</ele><time>2026-04-25T06:41:23.9Z</time></trkpt><trkpt lat="43.812751" lon="11.0518031"><ele>42.0</ele><time>2026-04-25T06:41:27.872Z</time></trkpt><trkpt lat="43.8127142" lon="11.0517284"><ele>42.0</ele><time>2026-04-25T06:41:30.886Z</time></trkpt><trkpt lat="43.8126765" lon="11.0516443"><ele>42.0</ele><time>2026-04-25T06:41:33.926Z</time></trkpt><trkpt lat="43.8126294" lon="11.0515514"><ele>42.0</ele><time>2026-04-25T06:41:38.768Z</time></trkpt><trkpt lat="43.8125833" lon="11.0514668"><ele>42.0</ele><time>2026-04-25T06:41:42.942Z</time></trkpt><trkpt lat="43.8125435" lon="11.0513926"><ele>42.0</ele><time>2026-04-25T06:41:45.966Z</time></trkpt><trkpt lat="43.8125087" lon="11.0513143"><ele>42.0</ele><time>2026-04-25T06:41:48.809Z</time></trkpt><trkpt lat="43.8124636" lon="11.0512234"><ele>42.0</ele><time>2026-04-25T06:41:52.914Z</time></trkpt><trkpt lat="43.8124297" lon="11.0511427"><ele>42.0</ele><time>2026-04-25T06:41:55.939Z</time></trkpt><trkpt lat="43.8123614" lon="11.0510789"><ele>42.0</ele><time>2026-04-25T06:41:59.994Z</time></trkpt><trkpt lat="43.8123029" lon="11.0509869"><ele>42.0</ele><time>2026-04-25T06:42:04.505Z</time></trkpt><trkpt lat="43.8122632" lon="11.0509088"><ele>42.0</ele><time>2026-04-25T06:42:07.825Z</time></trkpt><trkpt lat="43.8122251" lon="11.0508343"><ele>42.0</ele><time>2026-04-25T06:42:10.85Z</time></trkpt><trkpt lat="43.8121791" lon="11.050773"><ele>42.0</ele><time>2026-04-25T06:42:13.977Z</time></trkpt><trkpt lat="43.8121313" lon="11.0506986"><ele>42.0</ele><time>2026-04-25T06:42:17.505Z</time></trkpt><trkpt lat="43.812089" lon="11.0506049"><ele>42.0</ele><time>2026-04-25T06:42:21.772Z</time></trkpt><trkpt lat="43.8120544" lon="11.0505298"><ele>42.0</ele><time>2026-04-25T06:42:24.956Z</time></trkpt><trkpt lat="43.8120118" lon="11.0504531"><ele>42.0</ele><time>2026-04-25T06:42:27.981Z</time></trkpt><trkpt lat="43.8119556" lon="11.0503736"><ele>42.0</ele><time>2026-04-25T06:42:31.393Z</time></trkpt><trkpt lat="43.8118991" lon="11.0502886"><ele>42.0</ele><time>2026-04-25T06:42:34.992Z</time></trkpt></trkseg></trk></gpx>